sensor_id;sensor_type;location;lat;lon;timestamp;P1;durP1;ratioP1;P2;durP2;ratioP2
4355;SDS011;2191;51.482;7.408;2022-09-02T00:02:05;3.63;;;1.53;;
4355;SDS011;2191;51.482;7.408;2022-09-02T00:04:36;3.80;;;1.87;;
4355;SDS011;2191;51.482;7.408;2022-09-02T00:07:04;3.40;;;1.60;;
4355;SDS011;2191;51.482;7.408;2022-09-02T00:09:32;5.90;;;1.40;;
4355;SDS011;2191;51.482;7.408;2022-09-02T00:12:00;5.57;;;1.50;;
4355;SDS011;2191;51.482;7.408;2022-09-02T00:14:35;4.73;;;1.20;;
4355;SDS011;2191;51.482;7.408;2022-09-02T00:17:04;2.97;;;1.40;;
4355;SDS011;2191;51.482;7.408;2022-09-02T00:19:39;2.30;;;1.20;;
4355;SDS011;2191;51.482;7.408;2022-09-02T00:22:10;1.80;;;1.30;;
4355;SDS011;2191;51.482;7.408;2022-09-02T00:24:38;1.80;;;1.37;;
4355;SDS011;2191;51.482;7.408;2022-09-02T00:27:06;1.97;;;1.23;;
4355;SDS011;2191;51.482;7.408;2022-09-02T00:29:35;4.07;;;1.53;;
4355;SDS011;2191;51.482;7.408;2022-09-02T00:32:04;6.03;;;1.20;;
4355;SDS011;2191;51.482;7.408;2022-09-02T00:34:33;1.70;;;1.20;;
4355;SDS011;2191;51.482;7.408;2022-09-02T00:37:03;1.90;;;1.57;;
4355;SDS011;2191;51.482;7.408;2022-09-02T00:39:31;2.70;;;1.63;;
4355;SDS011;2191;51.482;7.408;2022-09-02T00:41:59;3.17;;;1.30;;
4355;SDS011;2191;51.482;7.408;2022-09-02T00:44:29;1.97;;;1.40;;
4355;SDS011;2191;51.482;7.408;2022-09-02T00:46:59;1.53;;;1.37;;
4355;SDS011;2191;51.482;7.408;2022-09-02T00:49:30;3.90;;;1.47;;
4355;SDS011;2191;51.482;7.408;2022-09-02T00:52:03;3.90;;;1.63;;
4355;SDS011;2191;51.482;7.408;2022-09-02T00:54:43;2.40;;;1.30;;
4355;SDS011;2191;51.482;7.408;2022-09-02T00:57:15;1.40;;;1.30;;
4355;SDS011;2191;51.482;7.408;2022-09-02T00:59:47;5.73;;;1.60;;
4355;SDS011;2191;51.482;7.408;2022-09-02T01:02:24;1.70;;;1.40;;
4355;SDS011;2191;51.482;7.408;2022-09-02T01:04:54;1.73;;;1.40;;
4355;SDS011;2191;51.482;7.408;2022-09-02T01:07:24;1.47;;;1.20;;
4355;SDS011;2191;51.482;7.408;2022-09-02T01:09:57;6.73;;;1.53;;
4355;SDS011;2191;51.482;7.408;2022-09-02T01:12:27;2.13;;;1.30;;
4355;SDS011;2191;51.482;7.408;2022-09-02T01:14:56;5.40;;;1.80;;
4355;SDS011;2191;51.482;7.408;2022-09-02T01:17:25;5.43;;;1.20;;
4355;SDS011;2191;51.482;7.408;2022-09-02T01:19:55;4.10;;;1.30;;
4355;SDS011;2191;51.482;7.408;2022-09-02T01:25:13;2.60;;;1.57;;
4355;SDS011;2191;51.482;7.408;2022-09-02T01:27:43;4.93;;;1.70;;
4355;SDS011;2191;51.482;7.408;2022-09-02T01:30:14;1.97;;;1.60;;
4355;SDS011;2191;51.482;7.408;2022-09-02T01:32:46;1.93;;;1.30;;
4355;SDS011;2191;51.482;7.408;2022-09-02T01:35:14;2.77;;;1.40;;
4355;SDS011;2191;51.482;7.408;2022-09-02T01:37:52;5.20;;;1.37;;
4355;SDS011;2191;51.482;7.408;2022-09-02T01:40:22;3.47;;;1.40;;
4355;SDS011;2191;51.482;7.408;2022-09-02T01:42:58;6.73;;;1.83;;
4355;SDS011;2191;51.482;7.408;2022-09-02T01:45:30;3.20;;;2.07;;
4355;SDS011;2191;51.482;7.408;2022-09-02T01:47:59;3.00;;;1.37;;
4355;SDS011;2191;51.482;7.408;2022-09-02T01:50:29;1.53;;;1.00;;
4355;SDS011;2191;51.482;7.408;2022-09-02T01:52:59;2.47;;;1.57;;
4355;SDS011;2191;51.482;7.408;2022-09-02T01:55:30;2.73;;;1.30;;
4355;SDS011;2191;51.482;7.408;2022-09-02T01:57:59;5.30;;;1.73;;
4355;SDS011;2191;51.482;7.408;2022-09-02T02:00:29;2.07;;;1.63;;
4355;SDS011;2191;51.482;7.408;2022-09-02T02:03:14;5.33;;;1.47;;
4355;SDS011;2191;51.482;7.408;2022-09-02T02:05:45;4.17;;;1.40;;
4355;SDS011;2191;51.482;7.408;2022-09-02T02:08:20;8.77;;;1.80;;
4355;SDS011;2191;51.482;7.408;2022-09-02T02:10:51;1.73;;;1.27;;
4355;SDS011;2191;51.482;7.408;2022-09-02T02:13:25;5.80;;;1.47;;
4355;SDS011;2191;51.482;7.408;2022-09-02T02:15:53;1.70;;;1.07;;
4355;SDS011;2191;51.482;7.408;2022-09-02T02:18:21;4.30;;;1.57;;
4355;SDS011;2191;51.482;7.408;2022-09-02T02:20:51;2.20;;;1.47;;
4355;SDS011;2191;51.482;7.408;2022-09-02T02:23:24;2.93;;;1.40;;
4355;SDS011;2191;51.482;7.408;2022-09-02T02:25:51;1.70;;;1.20;;
4355;SDS011;2191;51.482;7.408;2022-09-02T02:28:19;2.50;;;1.83;;
4355;SDS011;2191;51.482;7.408;2022-09-02T02:30:52;2.60;;;1.70;;
4355;SDS011;2191;51.482;7.408;2022-09-02T02:33:21;4.30;;;1.53;;
4355;SDS011;2191;51.482;7.408;2022-09-02T02:36:01;4.40;;;1.23;;
4355;SDS011;2191;51.482;7.408;2022-09-02T02:38:37;4.53;;;1.60;;
4355;SDS011;2191;51.482;7.408;2022-09-02T02:41:06;2.23;;;1.30;;
4355;SDS011;2191;51.482;7.408;2022-09-02T02:43:35;2.60;;;1.47;;
4355;SDS011;2191;51.482;7.408;2022-09-02T02:46:03;3.53;;;1.20;;
4355;SDS011;2191;51.482;7.408;2022-09-02T02:48:35;2.03;;;1.00;;
4355;SDS011;2191;51.482;7.408;2022-09-02T02:51:04;1.67;;;1.37;;
4355;SDS011;2191;51.482;7.408;2022-09-02T02:53:33;4.10;;;1.63;;
4355;SDS011;2191;51.482;7.408;2022-09-02T02:56:03;2.83;;;1.60;;
4355;SDS011;2191;51.482;7.408;2022-09-02T02:58:32;2.43;;;1.37;;
4355;SDS011;2191;51.482;7.408;2022-09-02T03:01:02;4.17;;;1.73;;
4355;SDS011;2191;51.482;7.408;2022-09-02T03:03:30;4.07;;;1.40;;
4355;SDS011;2191;51.482;7.408;2022-09-02T03:05:59;1.53;;;1.13;;
4355;SDS011;2191;51.482;7.408;2022-09-02T03:08:27;3.40;;;1.60;;
4355;SDS011;2191;51.482;7.408;2022-09-02T03:11:00;6.13;;;1.47;;
4355;SDS011;2191;51.482;7.408;2022-09-02T03:13:35;4.87;;;1.40;;
4355;SDS011;2191;51.482;7.408;2022-09-02T03:16:03;4.10;;;1.40;;
4355;SDS011;2191;51.482;7.408;2022-09-02T03:18:34;5.70;;;1.13;;
4355;SDS011;2191;51.482;7.408;2022-09-02T03:21:05;2.33;;;1.50;;
4355;SDS011;2191;51.482;7.408;2022-09-02T03:23:34;2.80;;;1.17;;
4355;SDS011;2191;51.482;7.408;2022-09-02T03:26:07;1.90;;;1.40;;
4355;SDS011;2191;51.482;7.408;2022-09-02T03:28:37;5.27;;;1.70;;
4355;SDS011;2191;51.482;7.408;2022-09-02T03:31:06;2.33;;;1.40;;
4355;SDS011;2191;51.482;7.408;2022-09-02T03:33:39;1.43;;;1.33;;
4355;SDS011;2191;51.482;7.408;2022-09-02T03:36:18;4.23;;;1.50;;
4355;SDS011;2191;51.482;7.408;2022-09-02T03:38:48;9.50;;;1.47;;
4355;SDS011;2191;51.482;7.408;2022-09-02T03:41:16;1.30;;;1.20;;
4355;SDS011;2191;51.482;7.408;2022-09-02T03:43:45;4.30;;;1.33;;
4355;SDS011;2191;51.482;7.408;2022-09-02T03:46:18;1.70;;;1.10;;
4355;SDS011;2191;51.482;7.408;2022-09-02T03:48:46;1.50;;;1.20;;
4355;SDS011;2191;51.482;7.408;2022-09-02T03:51:17;3.67;;;1.60;;
4355;SDS011;2191;51.482;7.408;2022-09-02T03:53:45;2.20;;;1.23;;
4355;SDS011;2191;51.482;7.408;2022-09-02T03:56:16;1.37;;;1.10;;
4355;SDS011;2191;51.482;7.408;2022-09-02T03:58:47;1.30;;;1.10;;
4355;SDS011;2191;51.482;7.408;2022-09-02T04:01:16;1.37;;;1.27;;
4355;SDS011;2191;51.482;7.408;2022-09-02T04:03:46;2.30;;;1.30;;
4355;SDS011;2191;51.482;7.408;2022-09-02T04:06:21;1.70;;;1.30;;
4355;SDS011;2191;51.482;7.408;2022-09-02T04:08:54;2.90;;;1.20;;
4355;SDS011;2191;51.482;7.408;2022-09-02T04:11:22;1.57;;;1.00;;
4355;SDS011;2191;51.482;7.408;2022-09-02T04:13:52;3.63;;;1.70;;
4355;SDS011;2191;51.482;7.408;2022-09-02T04:16:21;5.93;;;1.40;;
4355;SDS011;2191;51.482;7.408;2022-09-02T04:18:54;2.90;;;1.33;;
4355;SDS011;2191;51.482;7.408;2022-09-02T04:21:25;6.13;;;1.50;;
4355;SDS011;2191;51.482;7.408;2022-09-02T04:23:54;3.27;;;1.40;;
4355;SDS011;2191;51.482;7.408;2022-09-02T04:26:22;3.00;;;1.30;;
4355;SDS011;2191;51.482;7.408;2022-09-02T04:28:52;2.97;;;1.40;;
4355;SDS011;2191;51.482;7.408;2022-09-02T04:31:20;1.20;;;1.10;;
4355;SDS011;2191;51.482;7.408;2022-09-02T04:34:03;2.40;;;1.30;;
4355;SDS011;2191;51.482;7.408;2022-09-02T04:36:34;4.10;;;1.73;;
4355;SDS011;2191;51.482;7.408;2022-09-02T04:39:03;1.33;;;1.23;;
4355;SDS011;2191;51.482;7.408;2022-09-02T04:41:34;6.27;;;1.43;;
4355;SDS011;2191;51.482;7.408;2022-09-02T04:44:04;1.90;;;1.20;;
4355;SDS011;2191;51.482;7.408;2022-09-02T04:46:34;3.53;;;1.50;;
4355;SDS011;2191;51.482;7.408;2022-09-02T04:49:03;1.73;;;1.30;;
4355;SDS011;2191;51.482;7.408;2022-09-02T04:51:31;2.37;;;1.30;;
4355;SDS011;2191;51.482;7.408;2022-09-02T04:53:59;1.33;;;1.10;;
4355;SDS011;2191;51.482;7.408;2022-09-02T04:56:28;4.00;;;1.33;;
4355;SDS011;2191;51.482;7.408;2022-09-02T04:58:59;1.67;;;1.47;;
4355;SDS011;2191;51.482;7.408;2022-09-02T05:01:29;4.50;;;1.40;;
4355;SDS011;2191;51.482;7.408;2022-09-02T05:03:59;2.20;;;1.30;;
4355;SDS011;2191;51.482;7.408;2022-09-02T05:06:30;3.10;;;1.60;;
4355;SDS011;2191;51.482;7.408;2022-09-02T05:09:00;2.20;;;1.47;;
4355;SDS011;2191;51.482;7.408;2022-09-02T05:11:30;2.83;;;1.47;;
4355;SDS011;2191;51.482;7.408;2022-09-02T05:13:59;2.70;;;1.67;;
4355;SDS011;2191;51.482;7.408;2022-09-02T05:16:32;2.00;;;1.37;;
4355;SDS011;2191;51.482;7.408;2022-09-02T05:19:05;4.50;;;1.70;;
4355;SDS011;2191;51.482;7.408;2022-09-02T05:21:37;3.83;;;1.53;;
4355;SDS011;2191;51.482;7.408;2022-09-02T05:24:06;2.90;;;1.60;;
4355;SDS011;2191;51.482;7.408;2022-09-02T05:26:37;5.37;;;2.40;;
4355;SDS011;2191;51.482;7.408;2022-09-02T05:29:10;4.00;;;1.20;;
4355;SDS011;2191;51.482;7.408;2022-09-02T05:31:40;5.03;;;1.70;;
4355;SDS011;2191;51.482;7.408;2022-09-02T05:34:08;6.67;;;1.77;;
4355;SDS011;2191;51.482;7.408;2022-09-02T05:36:42;2.47;;;1.43;;
4355;SDS011;2191;51.482;7.408;2022-09-02T05:39:13;3.77;;;1.53;;
4355;SDS011;2191;51.482;7.408;2022-09-02T05:41:41;2.10;;;1.37;;
4355;SDS011;2191;51.482;7.408;2022-09-02T05:44:09;3.33;;;1.60;;
4355;SDS011;2191;51.482;7.408;2022-09-02T05:46:41;5.13;;;1.20;;
4355;SDS011;2191;51.482;7.408;2022-09-02T05:49:14;7.83;;;1.37;;
4355;SDS011;2191;51.482;7.408;2022-09-02T05:51:47;6.20;;;1.90;;
4355;SDS011;2191;51.482;7.408;2022-09-02T05:54:21;4.43;;;1.93;;
4355;SDS011;2191;51.482;7.408;2022-09-02T05:56:51;2.80;;;1.20;;
4355;SDS011;2191;51.482;7.408;2022-09-02T05:59:26;9.17;;;1.80;;
4355;SDS011;2191;51.482;7.408;2022-09-02T06:01:57;3.93;;;1.60;;
4355;SDS011;2191;51.482;7.408;2022-09-02T06:04:25;4.03;;;1.90;;
4355;SDS011;2191;51.482;7.408;2022-09-02T06:06:54;2.70;;;1.83;;
4355;SDS011;2191;51.482;7.408;2022-09-02T06:09:26;4.67;;;1.60;;
4355;SDS011;2191;51.482;7.408;2022-09-02T06:11:58;2.60;;;1.87;;
4355;SDS011;2191;51.482;7.408;2022-09-02T06:14:26;5.07;;;1.97;;
4355;SDS011;2191;51.482;7.408;2022-09-02T06:16:54;2.50;;;1.43;;
4355;SDS011;2191;51.482;7.408;2022-09-02T06:19:27;10.80;;;2.00;;
4355;SDS011;2191;51.482;7.408;2022-09-02T06:21:59;6.97;;;2.27;;
4355;SDS011;2191;51.482;7.408;2022-09-02T06:24:28;6.30;;;1.70;;
4355;SDS011;2191;51.482;7.408;2022-09-02T06:26:59;3.70;;;1.87;;
4355;SDS011;2191;51.482;7.408;2022-09-02T06:29:27;3.27;;;1.80;;
4355;SDS011;2191;51.482;7.408;2022-09-02T06:32:01;6.43;;;1.97;;
4355;SDS011;2191;51.482;7.408;2022-09-02T06:34:29;7.60;;;2.03;;
4355;SDS011;2191;51.482;7.408;2022-09-02T06:36:57;4.77;;;2.20;;
4355;SDS011;2191;51.482;7.408;2022-09-02T06:39:29;6.37;;;2.10;;
4355;SDS011;2191;51.482;7.408;2022-09-02T06:41:57;11.80;;;2.50;;
4355;SDS011;2191;51.482;7.408;2022-09-02T06:44:25;6.07;;;2.47;;
4355;SDS011;2191;51.482;7.408;2022-09-02T06:46:58;6.53;;;1.77;;
4355;SDS011;2191;51.482;7.408;2022-09-02T06:49:28;6.33;;;2.40;;
4355;SDS011;2191;51.482;7.408;2022-09-02T06:51:56;4.83;;;2.17;;
4355;SDS011;2191;51.482;7.408;2022-09-02T06:54:25;3.30;;;1.80;;
4355;SDS011;2191;51.482;7.408;2022-09-02T06:56:53;4.90;;;2.30;;
4355;SDS011;2191;51.482;7.408;2022-09-02T06:59:21;9.83;;;1.93;;
4355;SDS011;2191;51.482;7.408;2022-09-02T07:01:49;3.60;;;2.13;;
4355;SDS011;2191;51.482;7.408;2022-09-02T07:04:25;4.80;;;2.13;;
4355;SDS011;2191;51.482;7.408;2022-09-02T07:07:15;8.90;;;2.63;;
4355;SDS011;2191;51.482;7.408;2022-09-02T07:09:43;3.60;;;1.90;;
4355;SDS011;2191;51.482;7.408;2022-09-02T07:12:11;2.90;;;2.00;;
4355;SDS011;2191;51.482;7.408;2022-09-02T07:14:40;5.33;;;2.40;;
4355;SDS011;2191;51.482;7.408;2022-09-02T07:17:11;7.77;;;2.50;;
4355;SDS011;2191;51.482;7.408;2022-09-02T07:19:46;9.27;;;2.20;;
4355;SDS011;2191;51.482;7.408;2022-09-02T07:22:18;4.33;;;1.53;;
4355;SDS011;2191;51.482;7.408;2022-09-02T07:24:48;7.47;;;2.60;;
4355;SDS011;2191;51.482;7.408;2022-09-02T07:27:19;5.20;;;2.37;;
4355;SDS011;2191;51.482;7.408;2022-09-02T07:29:50;4.73;;;2.47;;
4355;SDS011;2191;51.482;7.408;2022-09-02T07:32:21;10.13;;;2.20;;
4355;SDS011;2191;51.482;7.408;2022-09-02T07:35:03;9.70;;;2.37;;
4355;SDS011;2191;51.482;7.408;2022-09-02T07:37:34;13.73;;;2.63;;
4355;SDS011;2191;51.482;7.408;2022-09-02T07:40:02;14.13;;;2.37;;
4355;SDS011;2191;51.482;7.408;2022-09-02T07:42:32;6.83;;;2.50;;
4355;SDS011;2191;51.482;7.408;2022-09-02T07:45:03;3.83;;;2.30;;
4355;SDS011;2191;51.482;7.408;2022-09-02T07:47:33;3.63;;;2.13;;
4355;SDS011;2191;51.482;7.408;2022-09-02T07:50:03;8.47;;;2.67;;
4355;SDS011;2191;51.482;7.408;2022-09-02T07:52:51;11.23;;;2.27;;
4355;SDS011;2191;51.482;7.408;2022-09-02T07:55:19;5.03;;;2.07;;
4355;SDS011;2191;51.482;7.408;2022-09-02T07:57:48;11.13;;;2.30;;
4355;SDS011;2191;51.482;7.408;2022-09-02T08:00:17;8.03;;;2.17;;
4355;SDS011;2191;51.482;7.408;2022-09-02T08:02:48;9.60;;;1.80;;
4355;SDS011;2191;51.482;7.408;2022-09-02T08:05:16;3.23;;;1.70;;
4355;SDS011;2191;51.482;7.408;2022-09-02T08:07:44;8.00;;;2.50;;
4355;SDS011;2191;51.482;7.408;2022-09-02T08:10:18;10.83;;;2.27;;
4355;SDS011;2191;51.482;7.408;2022-09-02T08:12:54;3.90;;;2.30;;
4355;SDS011;2191;51.482;7.408;2022-09-02T08:15:26;5.60;;;2.20;;
4355;SDS011;2191;51.482;7.408;2022-09-02T08:17:56;3.27;;;2.43;;
4355;SDS011;2191;51.482;7.408;2022-09-02T08:20:27;12.40;;;2.70;;
4355;SDS011;2191;51.482;7.408;2022-09-02T08:22:58;4.33;;;2.30;;
4355;SDS011;2191;51.482;7.408;2022-09-02T08:25:42;9.13;;;2.30;;
4355;SDS011;2191;51.482;7.408;2022-09-02T08:28:13;3.23;;;2.00;;
4355;SDS011;2191;51.482;7.408;2022-09-02T08:30:41;8.30;;;2.77;;
4355;SDS011;2191;51.482;7.408;2022-09-02T08:33:11;3.20;;;2.50;;
4355;SDS011;2191;51.482;7.408;2022-09-02T08:35:39;5.10;;;2.03;;
4355;SDS011;2191;51.482;7.408;2022-09-02T08:38:07;13.60;;;2.00;;
4355;SDS011;2191;51.482;7.408;2022-09-02T08:40:45;6.10;;;2.20;;
4355;SDS011;2191;51.482;7.408;2022-09-02T08:43:17;3.63;;;1.83;;
4355;SDS011;2191;51.482;7.408;2022-09-02T08:45:57;5.23;;;2.13;;
4355;SDS011;2191;51.482;7.408;2022-09-02T08:48:32;3.90;;;1.87;;
4355;SDS011;2191;51.482;7.408;2022-09-02T08:51:04;3.80;;;2.30;;
4355;SDS011;2191;51.482;7.408;2022-09-02T08:53:41;2.23;;;2.00;;
4355;SDS011;2191;51.482;7.408;2022-09-02T08:56:15;4.77;;;2.03;;
4355;SDS011;2191;51.482;7.408;2022-09-02T08:58:47;9.77;;;2.70;;
4355;SDS011;2191;51.482;7.408;2022-09-02T09:01:26;4.63;;;2.03;;
4355;SDS011;2191;51.482;7.408;2022-09-02T09:04:15;8.60;;;2.70;;
4355;SDS011;2191;51.482;7.408;2022-09-02T09:06:57;11.83;;;2.30;;
4355;SDS011;2191;51.482;7.408;2022-09-02T09:09:46;9.47;;;2.30;;
4355;SDS011;2191;51.482;7.408;2022-09-02T09:12:28;9.87;;;2.43;;
4355;SDS011;2191;51.482;7.408;2022-09-02T09:15:10;2.70;;;2.17;;
4355;SDS011;2191;51.482;7.408;2022-09-02T09:17:49;9.10;;;2.27;;
4355;SDS011;2191;51.482;7.408;2022-09-02T09:20:23;4.47;;;1.93;;
4355;SDS011;2191;51.482;7.408;2022-09-02T09:22:54;8.07;;;2.50;;
4355;SDS011;2191;51.482;7.408;2022-09-02T09:25:24;6.53;;;1.83;;
4355;SDS011;2191;51.482;7.408;2022-09-02T09:27:56;6.40;;;2.40;;
4355;SDS011;2191;51.482;7.408;2022-09-02T09:30:24;9.30;;;2.30;;
4355;SDS011;2191;51.482;7.408;2022-09-02T09:32:56;4.53;;;1.90;;
4355;SDS011;2191;51.482;7.408;2022-09-02T09:35:26;8.23;;;1.90;;
4355;SDS011;2191;51.482;7.408;2022-09-02T09:38:01;3.43;;;1.80;;
4355;SDS011;2191;51.482;7.408;2022-09-02T09:40:39;2.20;;;1.50;;
4355;SDS011;2191;51.482;7.408;2022-09-02T09:43:14;7.30;;;2.23;;
4355;SDS011;2191;51.482;7.408;2022-09-02T09:45:48;3.60;;;1.93;;
4355;SDS011;2191;51.482;7.408;2022-09-02T09:48:23;4.37;;;2.50;;
4355;SDS011;2191;51.482;7.408;2022-09-02T09:51:12;3.47;;;2.10;;
4355;SDS011;2191;51.482;7.408;2022-09-02T09:53:41;3.73;;;1.73;;
4355;SDS011;2191;51.482;7.408;2022-09-02T09:56:22;6.50;;;2.57;;
4355;SDS011;2191;51.482;7.408;2022-09-02T09:59:00;7.63;;;2.00;;
4355;SDS011;2191;51.482;7.408;2022-09-02T10:01:28;2.70;;;2.10;;
4355;SDS011;2191;51.482;7.408;2022-09-02T10:03:59;5.40;;;2.00;;
4355;SDS011;2191;51.482;7.408;2022-09-02T10:06:46;2.50;;;1.80;;
4355;SDS011;2191;51.482;7.408;2022-09-02T10:09:32;3.90;;;2.10;;
4355;SDS011;2191;51.482;7.408;2022-09-02T10:12:02;1.73;;;1.63;;
4355;SDS011;2191;51.482;7.408;2022-09-02T10:14:38;3.87;;;1.93;;
4355;SDS011;2191;51.482;7.408;2022-09-02T10:20:00;8.20;;;2.20;;
4355;SDS011;2191;51.482;7.408;2022-09-02T10:25:32;2.83;;;1.60;;
4355;SDS011;2191;51.482;7.408;2022-09-02T10:28:12;4.37;;;1.70;;
4355;SDS011;2191;51.482;7.408;2022-09-02T10:30:57;2.27;;;1.60;;
4355;SDS011;2191;51.482;7.408;2022-09-02T10:33:35;6.03;;;1.67;;
4355;SDS011;2191;51.482;7.408;2022-09-02T10:36:12;2.90;;;1.60;;
4355;SDS011;2191;51.482;7.408;2022-09-02T10:38:58;9.10;;;1.73;;
4355;SDS011;2191;51.482;7.408;2022-09-02T10:41:35;5.80;;;2.10;;
4355;SDS011;2191;51.482;7.408;2022-09-02T10:47:13;7.03;;;2.20;;
4355;SDS011;2191;51.482;7.408;2022-09-02T10:49:58;4.13;;;2.90;;
4355;SDS011;2191;51.482;7.408;2022-09-02T10:52:42;2.53;;;1.90;;
4355;SDS011;2191;51.482;7.408;2022-09-02T10:55:23;5.27;;;2.50;;
4355;SDS011;2191;51.482;7.408;2022-09-02T10:58:06;6.00;;;2.20;;
4355;SDS011;2191;51.482;7.408;2022-09-02T11:00:39;1.90;;;1.80;;
4355;SDS011;2191;51.482;7.408;2022-09-02T11:03:17;3.10;;;1.53;;
4355;SDS011;2191;51.482;7.408;2022-09-02T11:05:51;3.67;;;2.20;;
4355;SDS011;2191;51.482;7.408;2022-09-02T11:08:22;3.40;;;1.70;;
4355;SDS011;2191;51.482;7.408;2022-09-02T11:11:00;2.80;;;2.00;;
4355;SDS011;2191;51.482;7.408;2022-09-02T11:13:38;1.57;;;1.47;;
4355;SDS011;2191;51.482;7.408;2022-09-02T11:16:17;2.00;;;1.63;;
4355;SDS011;2191;51.482;7.408;2022-09-02T11:18:53;2.20;;;2.00;;
4355;SDS011;2191;51.482;7.408;2022-09-02T11:21:28;1.53;;;1.33;;
4355;SDS011;2191;51.482;7.408;2022-09-02T11:24:03;1.77;;;1.60;;
4355;SDS011;2191;51.482;7.408;2022-09-02T11:26:37;5.03;;;1.50;;
4355;SDS011;2191;51.482;7.408;2022-09-02T11:29:13;2.80;;;2.00;;
4355;SDS011;2191;51.482;7.408;2022-09-02T11:31:45;3.93;;;2.30;;
4355;SDS011;2191;51.482;7.408;2022-09-02T11:34:30;4.20;;;1.90;;
4355;SDS011;2191;51.482;7.408;2022-09-02T11:37:07;1.90;;;1.57;;
4355;SDS011;2191;51.482;7.408;2022-09-02T11:39:39;4.33;;;1.27;;
4355;SDS011;2191;51.482;7.408;2022-09-02T11:42:33;2.17;;;1.33;;
4355;SDS011;2191;51.482;7.408;2022-09-02T11:45:32;1.37;;;1.27;;
4355;SDS011;2191;51.482;7.408;2022-09-02T11:48:31;1.37;;;1.10;;
4355;SDS011;2191;51.482;7.408;2022-09-02T11:51:46;3.23;;;1.60;;
4355;SDS011;2191;51.482;7.408;2022-09-02T11:54:32;2.03;;;1.40;;
4355;SDS011;2191;51.482;7.408;2022-09-02T11:57:09;1.60;;;1.50;;
4355;SDS011;2191;51.482;7.408;2022-09-02T12:02:37;2.60;;;1.50;;
4355;SDS011;2191;51.482;7.408;2022-09-02T12:11:40;3.33;;;1.30;;
4355;SDS011;2191;51.482;7.408;2022-09-02T12:17:44;2.23;;;1.40;;
4355;SDS011;2191;51.482;7.408;2022-09-02T12:27:06;1.50;;;1.40;;
4355;SDS011;2191;51.482;7.408;2022-09-02T12:29:40;2.67;;;1.40;;
4355;SDS011;2191;51.482;7.408;2022-09-02T12:32:11;1.83;;;1.73;;
4355;SDS011;2191;51.482;7.408;2022-09-02T12:35:10;1.83;;;1.43;;
4355;SDS011;2191;51.482;7.408;2022-09-02T12:37:49;4.00;;;1.33;;
4355;SDS011;2191;51.482;7.408;2022-09-02T12:40:28;3.07;;;1.63;;
4355;SDS011;2191;51.482;7.408;2022-09-02T12:43:01;1.97;;;1.47;;
4355;SDS011;2191;51.482;7.408;2022-09-02T12:45:32;4.40;;;1.63;;
4355;SDS011;2191;51.482;7.408;2022-09-02T12:48:08;1.90;;;1.00;;
4355;SDS011;2191;51.482;7.408;2022-09-02T12:50:53;1.47;;;1.37;;
4355;SDS011;2191;51.482;7.408;2022-09-02T12:53:30;2.30;;;1.30;;
4355;SDS011;2191;51.482;7.408;2022-09-02T12:56:05;2.40;;;1.30;;
4355;SDS011;2191;51.482;7.408;2022-09-02T12:58:49;2.07;;;1.47;;
4355;SDS011;2191;51.482;7.408;2022-09-02T13:01:28;2.13;;;1.40;;
4355;SDS011;2191;51.482;7.408;2022-09-02T13:04:22;2.80;;;1.20;;
4355;SDS011;2191;51.482;7.408;2022-09-02T13:10:22;1.70;;;1.47;;
4355;SDS011;2191;51.482;7.408;2022-09-02T13:16:20;1.47;;;1.20;;
4355;SDS011;2191;51.482;7.408;2022-09-02T13:19:11;15.33;;;1.47;;
4355;SDS011;2191;51.482;7.408;2022-09-02T13:22:04;1.40;;;1.30;;
4355;SDS011;2191;51.482;7.408;2022-09-02T13:25:15;1.87;;;1.63;;
4355;SDS011;2191;51.482;7.408;2022-09-02T13:28:07;7.00;;;2.07;;
4355;SDS011;2191;51.482;7.408;2022-09-02T13:31:16;2.20;;;1.40;;
4355;SDS011;2191;51.482;7.408;2022-09-02T13:33:55;1.10;;;1.10;;
4355;SDS011;2191;51.482;7.408;2022-09-02T13:36:31;8.97;;;1.30;;
4355;SDS011;2191;51.482;7.408;2022-09-02T13:39:08;1.30;;;1.20;;
4355;SDS011;2191;51.482;7.408;2022-09-02T13:41:43;1.77;;;1.27;;
4355;SDS011;2191;51.482;7.408;2022-09-02T13:44:19;1.50;;;1.40;;
4355;SDS011;2191;51.482;7.408;2022-09-02T13:46:51;2.53;;;1.20;;
4355;SDS011;2191;51.482;7.408;2022-09-02T13:49:23;5.17;;;1.50;;
4355;SDS011;2191;51.482;7.408;2022-09-02T13:51:54;2.60;;;1.27;;
4355;SDS011;2191;51.482;7.408;2022-09-02T13:54:26;1.47;;;1.30;;
4355;SDS011;2191;51.482;7.408;2022-09-02T13:57:02;3.23;;;1.60;;
4355;SDS011;2191;51.482;7.408;2022-09-02T13:59:37;2.77;;;1.30;;
4355;SDS011;2191;51.482;7.408;2022-09-02T14:02:29;5.63;;;1.60;;
4355;SDS011;2191;51.482;7.408;2022-09-02T14:05:02;1.33;;;1.23;;
4355;SDS011;2191;51.482;7.408;2022-09-02T14:07:34;3.80;;;1.37;;
4355;SDS011;2191;51.482;7.408;2022-09-02T14:10:07;2.87;;;1.37;;
4355;SDS011;2191;51.482;7.408;2022-09-02T14:12:37;1.70;;;1.43;;
4355;SDS011;2191;51.482;7.408;2022-09-02T14:15:07;3.47;;;1.33;;
4355;SDS011;2191;51.482;7.408;2022-09-02T14:17:42;1.70;;;1.60;;
4355;SDS011;2191;51.482;7.408;2022-09-02T14:20:16;2.63;;;1.10;;
4355;SDS011;2191;51.482;7.408;2022-09-02T14:22:53;2.80;;;1.30;;
4355;SDS011;2191;51.482;7.408;2022-09-02T14:25:22;1.90;;;1.63;;
4355;SDS011;2191;51.482;7.408;2022-09-02T14:27:53;2.80;;;1.60;;
4355;SDS011;2191;51.482;7.408;2022-09-02T14:30:23;3.10;;;1.20;;
4355;SDS011;2191;51.482;7.408;2022-09-02T14:33:16;2.23;;;1.17;;
4355;SDS011;2191;51.482;7.408;2022-09-02T14:35:55;2.37;;;1.60;;
4355;SDS011;2191;51.482;7.408;2022-09-02T14:38:25;1.43;;;1.10;;
4355;SDS011;2191;51.482;7.408;2022-09-02T14:41:01;1.63;;;1.40;;
4355;SDS011;2191;51.482;7.408;2022-09-02T14:43:39;2.97;;;1.23;;
4355;SDS011;2191;51.482;7.408;2022-09-02T14:46:13;2.30;;;1.33;;
4355;SDS011;2191;51.482;7.408;2022-09-02T14:49:05;3.40;;;1.87;;
4355;SDS011;2191;51.482;7.408;2022-09-02T14:51:36;3.73;;;1.60;;
4355;SDS011;2191;51.482;7.408;2022-09-02T14:57:00;1.50;;;1.40;;
4355;SDS011;2191;51.482;7.408;2022-09-02T14:59:28;1.20;;;1.10;;
4355;SDS011;2191;51.482;7.408;2022-09-02T15:01:57;2.60;;;1.50;;
4355;SDS011;2191;51.482;7.408;2022-09-02T15:04:31;3.53;;;1.90;;
4355;SDS011;2191;51.482;7.408;2022-09-02T15:07:00;1.40;;;1.30;;
4355;SDS011;2191;51.482;7.408;2022-09-02T15:09:30;1.80;;;1.70;;
4355;SDS011;2191;51.482;7.408;2022-09-02T15:12:01;1.50;;;1.30;;
4355;SDS011;2191;51.482;7.408;2022-09-02T15:14:29;1.30;;;1.00;;
4355;SDS011;2191;51.482;7.408;2022-09-02T15:16:57;2.13;;;1.40;;
4355;SDS011;2191;51.482;7.408;2022-09-02T15:19:25;1.53;;;1.30;;
4355;SDS011;2191;51.482;7.408;2022-09-02T15:21:58;2.80;;;1.30;;
4355;SDS011;2191;51.482;7.408;2022-09-02T15:24:26;1.33;;;1.07;;
4355;SDS011;2191;51.482;7.408;2022-09-02T15:26:53;1.20;;;1.10;;
4355;SDS011;2191;51.482;7.408;2022-09-02T15:29:21;1.63;;;1.40;;
4355;SDS011;2191;51.482;7.408;2022-09-02T15:31:54;1.73;;;1.10;;
4355;SDS011;2191;51.482;7.408;2022-09-02T15:34:25;2.70;;;1.43;;
4355;SDS011;2191;51.482;7.408;2022-09-02T15:36:57;1.63;;;1.20;;
4355;SDS011;2191;51.482;7.408;2022-09-02T15:39:26;2.80;;;1.60;;
4355;SDS011;2191;51.482;7.408;2022-09-02T15:41:56;2.70;;;1.30;;
4355;SDS011;2191;51.482;7.408;2022-09-02T15:44:24;4.63;;;1.57;;
4355;SDS011;2191;51.482;7.408;2022-09-02T15:46:56;2.97;;;1.50;;
4355;SDS011;2191;51.482;7.408;2022-09-02T15:49:24;1.43;;;1.33;;
4355;SDS011;2191;51.482;7.408;2022-09-02T15:51:55;1.50;;;1.30;;
4355;SDS011;2191;51.482;7.408;2022-09-02T15:54:32;3.30;;;1.60;;
4355;SDS011;2191;51.482;7.408;2022-09-02T15:56:59;2.50;;;1.40;;
4355;SDS011;2191;51.482;7.408;2022-09-02T15:59:28;2.17;;;1.77;;
4355;SDS011;2191;51.482;7.408;2022-09-02T16:01:59;1.67;;;1.40;;
4355;SDS011;2191;51.482;7.408;2022-09-02T16:04:27;1.40;;;1.20;;
4355;SDS011;2191;51.482;7.408;2022-09-02T16:06:55;6.80;;;1.40;;
4355;SDS011;2191;51.482;7.408;2022-09-02T16:09:32;1.63;;;1.53;;
4355;SDS011;2191;51.482;7.408;2022-09-02T16:11:59;1.50;;;1.40;;
4355;SDS011;2191;51.482;7.408;2022-09-02T16:14:27;1.77;;;1.50;;
4355;SDS011;2191;51.482;7.408;2022-09-02T16:16:55;1.90;;;1.53;;
4355;SDS011;2191;51.482;7.408;2022-09-02T16:19:26;2.83;;;1.63;;
4355;SDS011;2191;51.482;7.408;2022-09-02T16:21:57;2.30;;;1.60;;
4355;SDS011;2191;51.482;7.408;2022-09-02T16:24:27;2.50;;;1.77;;
4355;SDS011;2191;51.482;7.408;2022-09-02T16:26:56;4.80;;;2.47;;
4355;SDS011;2191;51.482;7.408;2022-09-02T16:29:24;2.10;;;1.30;;
4355;SDS011;2191;51.482;7.408;2022-09-02T16:31:58;3.87;;;1.70;;
4355;SDS011;2191;51.482;7.408;2022-09-02T16:34:39;2.90;;;1.43;;